sensor_id;sensor_type;location;lat;lon;timestamp;temperature;humidity
45237;DHT22;30973;51.442;3.580;2022-10-16T11:00:02;19.30;99.90
45237;DHT22;30973;51.442;3.580;2022-10-16T11:02:41;19.30;99.90
45237;DHT22;30973;51.442;3.580;2022-10-16T11:07:52;19.50;99.90
45237;DHT22;30973;51.442;3.580;2022-10-16T11:10:24;19.50;99.90
45237;DHT22;30973;51.442;3.580;2022-10-16T11:13:03;19.70;99.90
45237;DHT22;30973;51.442;3.580;2022-10-16T11:15:35;19.70;99.90
45237;DHT22;30973;51.442;3.580;2022-10-16T11:18:19;19.80;99.90
45237;DHT22;30973;51.442;3.580;2022-10-16T11:20:57;19.90;99.90
45237;DHT22;30973;51.442;3.580;2022-10-16T11:23:42;19.90;99.90
45237;DHT22;30973;51.442;3.580;2022-10-16T11:26:23;19.90;99.90
45237;DHT22;30973;51.442;3.580;2022-10-16T11:28:56;20.00;99.90
45237;DHT22;30973;51.442;3.580;2022-10-16T11:31:37;20.10;99.90
45237;DHT22;30973;51.442;3.580;2022-10-16T11:34:38;19.90;99.90
45237;DHT22;30973;51.442;3.580;2022-10-16T11:37:12;19.70;99.90
45237;DHT22;30973;51.442;3.580;2022-10-16T11:39:42;19.50;99.90
45237;DHT22;30973;51.442;3.580;2022-10-16T11:42:21;19.40;99.90
45237;DHT22;30973;51.442;3.580;2022-10-16T11:45:29;19.30;99.90
45237;DHT22;30973;51.442;3.580;2022-10-16T11:48:22;19.50;99.90
45237;DHT22;30973;51.442;3.580;2022-10-16T11:53:53;19.50;99.90
45237;DHT22;30973;51.442;3.580;2022-10-16T11:56:25;19.50;99.90
45237;DHT22;30973;51.442;3.580;2022-10-16T11:59:02;19.50;99.90
45237;DHT22;30973;51.442;3.580;2022-10-16T12:01:49;19.40;99.90
45237;DHT22;30973;51.442;3.580;2022-10-16T12:09:32;19.50;99.90
45237;DHT22;30973;51.442;3.580;2022-10-16T12:12:00;19.50;99.90
45237;DHT22;30973;51.442;3.580;2022-10-16T12:22:59;19.10;99.90
45237;DHT22;30973;51.442;3.580;2022-10-16T12:25:36;19.10;99.90
45237;DHT22;30973;51.442;3.580;2022-10-16T12:28:27;19.00;99.90
45237;DHT22;30973;51.442;3.580;2022-10-16T12:31:05;19.00;99.90
45237;DHT22;30973;51.442;3.580;2022-10-16T12:33:37;18.90;99.90
45237;DHT22;30973;51.442;3.580;2022-10-16T12:36:31;18.80;99.90
45237;DHT22;30973;51.442;3.580;2022-10-16T12:38:59;18.80;99.90
45237;DHT22;30973;51.442;3.580;2022-10-16T12:41:31;18.80;99.90
45237;DHT22;30973;51.442;3.580;2022-10-16T12:43:59;18.80;99.90
45237;DHT22;30973;51.442;3.580;2022-10-16T12:51:43;19.10;99.90
45237;DHT22;30973;51.442;3.580;2022-10-16T12:54:37;19.30;99.90
45237;DHT22;30973;51.442;3.580;2022-10-16T13:00:13;19.50;99.90
45237;DHT22;30973;51.442;3.580;2022-10-16T13:11:26;19.50;99.90
45237;DHT22;30973;51.442;3.580;2022-10-16T13:21:51;19.60;99.90
45237;DHT22;30973;51.442;3.580;2022-10-16T13:30:16;19.60;99.90
45237;DHT22;30973;51.442;3.580;2022-10-16T13:32:49;19.70;99.90
45237;DHT22;30973;51.442;3.580;2022-10-16T13:35:25;19.80;99.90
45237;DHT22;30973;51.442;3.580;2022-10-16T13:40:36;19.70;99.90
45237;DHT22;30973;51.442;3.580;2022-10-16T13:43:03;19.60;99.90
45237;DHT22;30973;51.442;3.580;2022-10-16T13:45:30;19.50;99.90
45237;DHT22;30973;51.442;3.580;2022-10-16T13:48:05;19.50;99.90
45237;DHT22;30973;51.442;3.580;2022-10-16T13:50:32;19.50;99.90
45237;DHT22;30973;51.442;3.580;2022-10-16T13:53:30;19.40;99.90
45237;DHT22;30973;51.442;3.580;2022-10-16T13:55:57;19.30;99.90
45237;DHT22;30973;51.442;3.580;2022-10-16T13:58:24;19.30;99.90
45237;DHT22;30973;51.442;3.580;2022-10-16T14:00:59;19.30;99.90
45237;DHT22;30973;51.442;3.580;2022-10-16T14:03:27;19.30;99.90
45237;DHT22;30973;51.442;3.580;2022-10-16T14:06:00;19.20;99.90
45237;DHT22;30973;51.442;3.580;2022-10-16T14:08:29;19.20;99.90
45237;DHT22;30973;51.442;3.580;2022-10-16T14:10:59;19.20;99.90
45237;DHT22;30973;51.442;3.580;2022-10-16T14:13:34;19.20;99.90
45237;DHT22;30973;51.442;3.580;2022-10-16T14:16:07;19.20;99.90
45237;DHT22;30973;51.442;3.580;2022-10-16T14:18:37;19.20;99.90
45237;DHT22;30973;51.442;3.580;2022-10-16T14:21:11;19.20;99.90
45237;DHT22;30973;51.442;3.580;2022-10-16T14:23:40;19.20;99.90
45237;DHT22;30973;51.442;3.580;2022-10-16T14:28:37;19.20;99.90
45237;DHT22;30973;51.442;3.580;2022-10-16T14:33:46;19.20;99.90
45237;DHT22;30973;51.442;3.580;2022-10-16T14:36:14;19.20;99.90
45237;DHT22;30973;51.442;3.580;2022-10-16T14:38:49;19.20;99.90
45237;DHT22;30973;51.442;3.580;2022-10-16T14:41:21;19.20;99.90
45237;DHT22;30973;51.442;3.580;2022-10-16T14:44:00;19.20;99.90
45237;DHT22;30973;51.442;3.580;2022-10-16T14:46:34;19.10;99.90
45237;DHT22;30973;51.442;3.580;2022-10-16T14:51:39;19.10;99.90
45237;DHT22;30973;51.442;3.580;2022-10-16T14:54:16;19.00;99.90
45237;DHT22;30973;51.442;3.580;2022-10-16T14:56:56;18.90;99.90
45237;DHT22;30973;51.442;3.580;2022-10-16T14:59:36;18.90;99.90
45237;DHT22;30973;51.442;3.580;2022-10-16T15:02:34;18.80;99.90
45237;DHT22;30973;51.442;3.580;2022-10-16T15:05:16;18.70;99.90
45237;DHT22;30973;51.442;3.580;2022-10-16T15:07:43;18.70;99.90
45237;DHT22;30973;51.442;3.580;2022-10-16T15:10:12;18.60;99.90
45237;DHT22;30973;51.442;3.580;2022-10-16T15:12:40;18.50;99.90
45237;DHT22;30973;51.442;3.580;2022-10-16T15:17:51;18.50;99.90
45237;DHT22;30973;51.442;3.580;2022-10-16T15:20:24;18.40;99.90
45237;DHT22;30973;51.442;3.580;2022-10-16T15:22:51;18.40;99.90
45237;DHT22;30973;51.442;3.580;2022-10-16T15:27:54;18.30;99.90
45237;DHT22;30973;51.442;3.580;2022-10-16T15:30:21;18.20;99.90
45237;DHT22;30973;51.442;3.580;2022-10-16T15:32:48;18.20;99.90
45237;DHT22;30973;51.442;3.580;2022-10-16T15:35:15;18.20;99.90
45237;DHT22;30973;51.442;3.580;2022-10-16T15:37:46;18.20;99.90
45237;DHT22;30973;51.442;3.580;2022-10-16T15:40:13;18.10;99.90
45237;DHT22;30973;51.442;3.580;2022-10-16T15:42:41;18.20;99.90
45237;DHT22;30973;51.442;3.580;2022-10-16T15:45:09;18.10;99.90
45237;DHT22;30973;51.442;3.580;2022-10-16T15:47:36;18.10;99.90
45237;DHT22;30973;51.442;3.580;2022-10-16T15:50:10;18.10;99.90
45237;DHT22;30973;51.442;3.580;2022-10-16T15:52:39;18.00;99.90
45237;DHT22;30973;51.442;3.580;2022-10-16T15:55:11;18.10;99.90
45237;DHT22;30973;51.442;3.580;2022-10-16T15:57:38;18.10;99.90
45237;DHT22;30973;51.442;3.580;2022-10-16T16:00:15;18.10;99.90
45237;DHT22;30973;51.442;3.580;2022-10-16T16:02:43;18.00;99.90
45237;DHT22;30973;51.442;3.580;2022-10-16T16:05:16;18.00;99.90
45237;DHT22;30973;51.442;3.580;2022-10-16T16:07:43;18.00;99.90
45237;DHT22;30973;51.442;3.580;2022-10-16T16:10:11;18.00;99.90
45237;DHT22;30973;51.442;3.580;2022-10-16T16:12:38;17.90;99.90
45237;DHT22;30973;51.442;3.580;2022-10-16T16:15:07;17.90;99.90
45237;DHT22;30973;51.442;3.580;2022-10-16T16:17:35;17.90;99.90
45237;DHT22;30973;51.442;3.580;2022-10-16T16:20:04;17.80;99.90
45237;DHT22;30973;51.442;3.580;2022-10-16T16:22:31;17.80;99.90
45237;DHT22;30973;51.442;3.580;2022-10-16T16:24:58;17.80;99.90
45237;DHT22;30973;51.442;3.580;2022-10-16T16:27:25;17.80;99.90
45237;DHT22;30973;51.442;3.580;2022-10-16T16:29:53;17.70;99.90
45237;DHT22;30973;51.442;3.580;2022-10-16T16:32:22;17.70;99.90
45237;DHT22;30973;51.442;3.580;2022-10-16T16:34:48;17.80;99.90
45237;DHT22;30973;51.442;3.580;2022-10-16T16:37:16;17.70;99.90
45237;DHT22;30973;51.442;3.580;2022-10-16T16:39:43;17.70;99.90
45237;DHT22;30973;51.442;3.580;2022-10-16T16:42:09;17.70;99.90
45237;DHT22;30973;51.442;3.580;2022-10-16T16:44:36;17.70;99.90
45237;DHT22;30973;51.442;3.580;2022-10-16T16:47:05;17.70;99.90
45237;DHT22;30973;51.442;3.580;2022-10-16T16:49:32;17.60;99.90
45237;DHT22;30973;51.442;3.580;2022-10-16T16:51:59;17.60;99.90
45237;DHT22;30973;51.442;3.580;2022-10-16T16:54:26;17.50;99.90
45237;DHT22;30973;51.442;3.580;2022-10-16T16:56:53;17.60;99.90
45237;DHT22;30973;51.442;3.580;2022-10-16T16:59:20;17.60;99.90
45237;DHT22;30973;51.442;3.580;2022-10-16T17:01:49;17.50;99.90
45237;DHT22;30973;51.442;3.580;2022-10-16T17:04:22;17.50;99.90
45237;DHT22;30973;51.442;3.580;2022-10-16T17:06:49;17.50;99.90
45237;DHT22;30973;51.442;3.580;2022-10-16T17:09:16;17.50;99.90
45237;DHT22;30973;51.442;3.580;2022-10-16T17:11:43;17.50;99.90
45237;DHT22;30973;51.442;3.580;2022-10-16T17:14:11;17.50;99.90
45237;DHT22;30973;51.442;3.580;2022-10-16T17:19:08;17.50;99.90
45237;DHT22;30973;51.442;3.580;2022-10-16T17:21:37;17.50;99.90
45237;DHT22;30973;51.442;3.580;2022-10-16T17:24:04;17.50;99.90
45237;DHT22;30973;51.442;3.580;2022-10-16T17:26:32;17.50;99.90
45237;DHT22;30973;51.442;3.580;2022-10-16T17:29:00;17.50;99.90
45237;DHT22;30973;51.442;3.580;2022-10-16T17:31:33;17.40;99.90
45237;DHT22;30973;51.442;3.580;2022-10-16T17:36:30;17.40;99.90
45237;DHT22;30973;51.442;3.580;2022-10-16T17:39:05;17.40;99.90
45237;DHT22;30973;51.442;3.580;2022-10-16T17:41:34;17.40;99.90
45237;DHT22;30973;51.442;3.580;2022-10-16T17:44:03;17.40;99.90
45237;DHT22;30973;51.442;3.580;2022-10-16T17:46:30;17.30;99.90
45237;DHT22;30973;51.442;3.580;2022-10-16T17:51:31;17.30;99.90
45237;DHT22;30973;51.442;3.580;2022-10-16T17:54:00;17.30;99.90
45237;DHT22;30973;51.442;3.580;2022-10-16T17:56:27;17.30;99.90
